createdAt,value
2023-09-19T00:04:44.142Z,99447.97
2023-09-19T00:09:45.676Z,99450.50
2023-09-19T00:14:47.211Z,99449.13
2023-09-19T00:19:52.724Z,99446.44
2023-09-19T00:24:54.687Z,99443.16
2023-09-19T00:29:57.363Z,99453.94
2023-09-19T00:34:59.179Z,99459.13
2023-09-19T00:40:00.652Z,99448.63
2023-09-19T00:45:04.353Z,99451.97
2023-09-19T00:50:08.666Z,99433.28
2023-09-19T00:55:11.785Z,99438.72
2023-09-19T01:00:16.583Z,99432.44
2023-09-19T01:05:18.901Z,99432.69
2023-09-19T01:10:22.026Z,99426.66
2023-09-19T01:15:44.581Z,99423.28
2023-09-19T01:21:29.616Z,99434.03
2023-09-19T01:27:10.141Z,99429.00
2023-09-19T01:32:15.816Z,99433.91
2023-09-19T01:37:23.115Z,99439.97
2023-09-19T01:42:45.953Z,99428.97
2023-09-19T01:47:49.301Z,99428.03
2023-09-19T01:52:58.364Z,99428.34
2023-09-19T01:58:08.533Z,99418.84
2023-09-19T02:03:12.534Z,99425.25
2023-09-19T02:08:18.124Z,99422.78
2023-09-19T02:13:20.839Z,99434.00
2023-09-19T02:18:22.958Z,99435.50
2023-09-19T02:23:24.432Z,99429.31
2023-09-19T02:28:31.166Z,99427.50
2023-09-19T02:33:34.004Z,99445.56
2023-09-19T02:38:35.803Z,99442.13
2023-09-19T02:43:37.695Z,99426.09
2023-09-19T02:48:39.660Z,99424.09
2023-09-19T02:53:41.277Z,99406.56
2023-09-19T02:58:43.965Z,99392.31
2023-09-19T03:03:46.095Z,99393.13
2023-09-19T03:08:47.873Z,99401.81
2023-09-19T03:13:55.635Z,99408.78
2023-09-19T03:18:57.112Z,99405.72
2023-09-19T03:23:58.582Z,99410.97
2023-09-19T03:29:00.073Z,99405.31
2023-09-19T03:34:01.521Z,99409.03
2023-09-19T03:39:06.109Z,99417.47
2023-09-19T03:44:07.594Z,99422.53
2023-09-19T03:49:09.799Z,99417.91
2023-09-19T03:54:11.315Z,99421.47
2023-09-19T03:59:13.170Z,99414.50
2023-09-19T04:04:15.489Z,99423.19
2023-09-19T04:09:16.945Z,99417.06
2023-09-19T04:14:18.516Z,99418.22
2023-09-19T04:19:20.004Z,99416.06
2023-09-19T04:24:21.541Z,99413.13
2023-09-19T04:29:23.007Z,99410.59
2023-09-19T04:34:25.598Z,99420.22
2023-09-19T04:39:28.063Z,99422.78
2023-09-19T04:44:29.526Z,99434.50
2023-09-19T04:49:31.077Z,99429.03
2023-09-19T04:54:32.554Z,99441.13
2023-09-19T04:59:33.982Z,99448.28
2023-09-19T05:04:35.687Z,99442.81
2023-09-19T05:09:38.388Z,99447.00
2023-09-19T05:14:41.647Z,99442.16
2023-09-19T05:19:43.208Z,99445.28
2023-09-19T05:24:44.861Z,99447.63
2023-09-19T05:29:46.362Z,99462.25
2023-09-19T05:34:54.170Z,99470.72
2023-09-19T05:39:55.750Z,99464.72
2023-09-19T05:44:57.836Z,99484.06
2023-09-19T05:50:00.743Z,99489.16
2023-09-19T05:55:02.435Z,99495.53
2023-09-19T06:00:09.929Z,99512.94
2023-09-19T06:05:11.774Z,99505.50
2023-09-19T06:10:14.322Z,99490.47
2023-09-19T06:15:17.036Z,99499.06
2023-09-19T06:20:18.952Z,99522.78
2023-09-19T06:25:21.293Z,99524.50
2023-09-19T06:30:26.970Z,99511.81
2023-09-19T06:35:30.894Z,99517.69
2023-09-19T06:40:32.622Z,99523.94
2023-09-19T06:45:34.185Z,99529.09
2023-09-19T06:50:37.089Z,99535.44
2023-09-19T06:55:38.572Z,99544.94
2023-09-19T07:00:40.313Z,99561.75
2023-09-19T07:05:42.141Z,99562.81
2023-09-19T07:10:50.180Z,99566.81
2023-09-19T07:15:52.087Z,99574.56
2023-09-19T07:21:02.370Z,99581.31
2023-09-19T07:26:06.456Z,99576.72
2023-09-19T07:31:11.349Z,99586.41
2023-09-19T07:36:17.135Z,99586.41
2023-09-19T07:41:18.609Z,99580.28
2023-09-19T07:46:20.105Z,99593.34
2023-09-19T07:51:21.642Z,99595.03
2023-09-19T07:56:23.822Z,99608.38
2023-09-19T08:01:25.642Z,99605.00
2023-09-19T08:06:31.368Z,99623.44
2023-09-19T08:11:34.122Z,99630.50
2023-09-19T08:16:35.648Z,99638.91
2023-09-19T08:21:37.683Z,99654.50
2023-09-19T08:26:39.138Z,99658.44
2023-09-19T08:31:40.703Z,99656.13
2023-09-19T08:36:44.562Z,99661.03
2023-09-19T08:41:46.503Z,99655.81
2023-09-19T08:46:50.507Z,99666.81
2023-09-19T08:51:58.115Z,99665.09
2023-09-19T08:57:05.188Z,99674.50
2023-09-19T09:02:15.202Z,99679.56
2023-09-19T09:07:18.308Z,99688.38
2023-09-19T09:12:20.052Z,99681.19
2023-09-19T09:17:21.801Z,99700.78
2023-09-19T09:22:24.976Z,99708.94
2023-09-19T09:27:26.529Z,99718.38
2023-09-19T09:32:30.241Z,99712.78
2023-09-19T09:37:32.676Z,99718.56
2023-09-19T09:42:40.127Z,99720.91
2023-09-19T09:47:56.624Z,99713.31
2023-09-19T09:53:07.508Z,99735.28
2023-09-19T09:58:19.773Z,99728.16
2023-09-19T10:03:24.278Z,99741.97
2023-09-19T10:08:32.132Z,99743.22
2023-09-19T10:13:38.139Z,99742.31
2023-09-19T10:18:44.671Z,99751.34
2023-09-19T10:23:46.799Z,99751.19
2023-09-19T10:28:51.434Z,99748.91
2023-09-19T10:33:54.616Z,99762.59
2023-09-19T10:38:59.866Z,99757.91
2023-09-19T10:44:08.115Z,99776.16
2023-09-19T10:49:12.548Z,99776.72
2023-09-19T10:54:18.653Z,99767.59
2023-09-19T10:59:22.370Z,99783.75
2023-09-19T11:04:27.796Z,99780.38
2023-09-19T11:09:43.812Z,99766.41
2023-09-19T11:14:46.138Z,99776.94
2023-09-19T11:20:09.183Z,99779.88
2023-09-19T11:25:30.793Z,99763.63
2023-09-19T11:30:44.500Z,99770.44
2023-09-19T11:36:06.372Z,99765.16
2023-09-19T11:41:23.743Z,99771.50
2023-09-19T11:46:25.870Z,99777.22
2023-09-19T11:51:28.048Z,99789.69
2023-09-19T11:56:30.061Z,99790.56
2023-09-19T12:01:34.655Z,99784.22
2023-09-19T12:06:39.923Z,99788.44
2023-09-19T12:11:45.114Z,99770.22
2023-09-19T12:16:56.985Z,99773.63
2023-09-19T12:22:06.325Z,99778.28
2023-09-19T12:27:08.578Z,99778.28
2023-09-19T12:32:10.778Z,99772.38
2023-09-19T12:37:22.827Z,99776.56
2023-09-19T12:42:30.800Z,99767.25
2023-09-19T12:47:34.396Z,99774.44
2023-09-19T12:52:39.796Z,99785.06
2023-09-19T12:57:41.406Z,99767.44
2023-09-19T13:03:11.803Z,99754.06
2023-09-19T13:08:21.815Z,99755.78
2023-09-19T13:13:26.272Z,99751.09
2023-09-19T13:18:27.961Z,99742.84
2023-09-19T13:23:29.500Z,99755.78
2023-09-19T13:28:31.039Z,99749.66
2023-09-19T13:33:33.649Z,99744.31
2023-09-19T13:38:35.969Z,99735.44
2023-09-19T13:43:40.605Z,99733.97
2023-09-19T13:48:42.368Z,99737.16
2023-09-19T13:53:44.116Z,99740.56
2023-09-19T13:58:45.579Z,99737.59
2023-09-19T14:03:47.678Z,99723.59
2023-09-19T14:08:51.023Z,99732.09
2023-09-19T14:13:55.073Z,99729.75
2023-09-19T14:19:01.669Z,99737.81
2023-09-19T14:24:03.895Z,99724.03
2023-09-19T14:29:06.484Z,99731.66
2023-09-19T14:34:10.942Z,99740.13
2023-09-19T14:39:12.830Z,99731.00
2023-09-19T14:44:14.305Z,99736.53
2023-09-19T14:49:17.915Z,99732.47
2023-09-19T14:54:19.951Z,99743.50
2023-09-19T14:59:21.542Z,99745.00
2023-09-19T15:04:23.472Z,99741.38
2023-09-19T15:09:27.405Z,99742.72
2023-09-19T15:14:30.776Z,99751.59
2023-09-19T15:19:32.335Z,99749.06
2023-09-19T15:24:33.826Z,99745.03
2023-09-19T15:29:35.294Z,99745.69
2023-09-19T15:34:36.979Z,99751.81
2023-09-19T15:39:38.441Z,99752.38
2023-09-19T15:44:39.903Z,99749.84
2023-09-19T15:49:41.437Z,99750.53
2023-09-19T15:54:45.815Z,99750.53
2023-09-19T15:59:47.841Z,99758.16
2023-09-19T16:04:49.442Z,99761.56
2023-09-19T16:09:50.977Z,99757.88
2023-09-19T16:14:52.693Z,99762.53
2023-09-19T16:19:55.688Z,99767.13
2023-09-19T16:24:57.203Z,99770.69
2023-09-19T16:29:58.662Z,99777.22
2023-09-19T16:35:00.206Z,99768.72
2023-09-19T16:40:01.790Z,99781.13
2023-09-19T16:45:03.529Z,99783.38
2023-09-19T16:50:07.138Z,99793.06
2023-09-19T16:55:08.901Z,99799.59
2023-09-19T17:00:11.580Z,99806.16
2023-09-19T17:05:13.758Z,99803.16
2023-09-19T17:10:15.386Z,99813.06
2023-09-19T17:15:16.856Z,99808.31
2023-09-19T17:20:18.883Z,99817.34
2023-09-19T17:25:21.256Z,99812.81
2023-09-19T17:30:23.329Z,99820.94
2023-09-19T17:35:25.315Z,99826.28
2023-09-19T17:40:27.131Z,99830.81
2023-09-19T17:45:28.652Z,99828.97
2023-09-19T17:50:30.149Z,99835.16
2023-09-19T17:55:31.966Z,99840.13
2023-09-19T18:00:35.524Z,99848.84
2023-09-19T18:05:37.078Z,99852.63
2023-09-19T18:10:39.437Z,99853.00
2023-09-19T18:15:41.211Z,99857.53
2023-09-19T18:20:42.728Z,99859.09
2023-09-19T18:25:44.868Z,99875.47
2023-09-19T18:30:47.215Z,99869.91
2023-09-19T18:35:48.677Z,99866.41
2023-09-19T18:40:51.599Z,99870.47
2023-09-19T18:45:57.876Z,99868.56
2023-09-19T18:51:08.010Z,99869.22
2023-09-19T18:56:14.749Z,99875.25
2023-09-19T19:01:17.616Z,99875.34
2023-09-19T19:06:19.388Z,99878.34
2023-09-19T19:11:22.939Z,99888.66
2023-09-19T19:16:27.643Z,99890.78
2023-09-19T19:21:29.455Z,99882.63
2023-09-19T19:26:32.053Z,99893.94
2023-09-19T19:31:35.891Z,99892.16
2023-09-19T19:36:37.444Z,99892.69
2023-09-19T19:41:40.068Z,99907.06
2023-09-19T19:46:41.945Z,99912.78
2023-09-19T19:51:45.869Z,99905.38
2023-09-19T19:56:48.272Z,99907.28
2023-09-19T20:01:50.497Z,99909.53
2023-09-19T20:06:52.359Z,99909.00
2023-09-19T20:11:54.139Z,99919.66
2023-09-19T20:16:59.286Z,99914.50
2023-09-19T20:22:06.806Z,99921.38
2023-09-19T20:27:08.557Z,99918.69
2023-09-19T20:32:10.453Z,99915.16
2023-09-19T20:37:12.244Z,99923.22
2023-09-19T20:42:13.727Z,99929.03
2023-09-19T20:47:15.447Z,99931.06
2023-09-19T20:52:17.916Z,99929.53
2023-09-19T20:57:19.439Z,99939.59
2023-09-19T21:02:21.100Z,99941.34
2023-09-19T21:07:22.876Z,99943.06
2023-09-19T21:12:24.343Z,99939.63
2023-09-19T21:17:27.112Z,99948.66
2023-09-19T21:22:29.659Z,99950.00
2023-09-19T21:27:32.421Z,99951.56
2023-09-19T21:32:33.972Z,99948.31
2023-09-19T21:37:35.512Z,99948.09
2023-09-19T21:42:38.484Z,99945.38
2023-09-19T21:47:40.056Z,99942.00
2023-09-19T21:52:41.622Z,99939.44
2023-09-19T21:57:43.104Z,99942.66
2023-09-19T22:02:44.688Z,99947.97
2023-09-19T22:07:46.389Z,99944.38
2023-09-19T22:12:47.954Z,99952.19
2023-09-19T22:17:49.432Z,99953.38
2023-09-19T22:22:52.832Z,99946.56
2023-09-19T22:27:54.327Z,99950.81
2023-09-19T22:32:56.945Z,99954.88
2023-09-19T22:38:12.090Z,99956.06
2023-09-19T22:43:15.789Z,99954.00
2023-09-19T22:48:17.397Z,99955.88
2023-09-19T22:53:21.585Z,99953.81
2023-09-19T22:58:24.208Z,99961.31
2023-09-19T23:03:26.854Z,99964.63
2023-09-19T23:08:29.518Z,99970.41
2023-09-19T23:13:34.705Z,99976.41
2023-09-19T23:18:37.154Z,99976.81
2023-09-19T23:23:42.355Z,99982.91
2023-09-19T23:28:49.227Z,99978.50
2023-09-19T23:33:51.732Z,99972.66
2023-09-19T23:38:58.711Z,99980.16
2023-09-19T23:44:00.242Z,99987.22
2023-09-19T23:49:03.512Z,99981.94
2023-09-19T23:54:07.959Z,99982.09
2023-09-19T23:59:09.617Z,99984.13
